createdAt,value
2023-03-03T00:00:05.013Z,67.54
2023-03-03T00:02:32.704Z,68.20
2023-03-03T00:05:00.355Z,68.38
2023-03-03T00:07:31.331Z,67.99
2023-03-03T00:09:58.960Z,68.02
2023-03-03T00:12:26.976Z,68.38
2023-03-03T00:14:54.701Z,68.82
2023-03-03T00:17:22.337Z,68.37
2023-03-03T00:19:50.187Z,68.59
2023-03-03T00:22:17.862Z,68.92
2023-03-03T00:24:45.825Z,68.79
2023-03-03T00:27:13.493Z,68.95
2023-03-03T00:29:41.186Z,68.57
2023-03-03T00:32:09.014Z,68.56
2023-03-03T00:34:36.678Z,69.15
2023-03-03T00:37:04.684Z,69.22
2023-03-03T00:39:32.333Z,69.23
2023-03-03T00:42:00.733Z,69.02
2023-03-03T00:44:29.346Z,68.97
2023-03-03T00:46:56.938Z,69.02
2023-03-03T00:49:25.217Z,69.10
2023-03-03T00:51:53.185Z,69.38
2023-03-03T00:54:21.117Z,68.91
2023-03-03T00:56:48.739Z,69.07
2023-03-03T00:59:16.340Z,69.08
2023-03-03T01:01:44.387Z,69.94
2023-03-03T01:04:12.053Z,69.73
2023-03-03T01:06:39.739Z,69.90
2023-03-03T01:09:07.324Z,69.32
2023-03-03T01:11:34.916Z,69.67
2023-03-03T01:14:03.270Z,68.97
2023-03-03T01:16:30.936Z,69.62
2023-03-03T01:18:58.530Z,69.51
2023-03-03T01:21:26.144Z,69.48
2023-03-03T01:23:53.728Z,69.57
2023-03-03T01:26:21.686Z,69.79
2023-03-03T01:28:49.338Z,69.38
2023-03-03T01:31:17.082Z,69.85
2023-03-03T01:33:44.732Z,70.13
2023-03-03T01:36:12.704Z,70.00
2023-03-03T01:38:40.462Z,69.50
2023-03-03T01:41:08.098Z,69.92
2023-03-03T01:43:35.740Z,69.72
2023-03-03T01:46:03.539Z,69.43
2023-03-03T01:48:31.139Z,69.40
2023-03-03T01:50:58.771Z,69.73
2023-03-03T01:53:26.372Z,69.64
2023-03-03T01:55:54.228Z,69.87
2023-03-03T01:58:21.916Z,69.53
2023-03-03T02:00:50.378Z,70.18
2023-03-03T02:03:18.360Z,70.00
2023-03-03T02:05:46.057Z,70.83
2023-03-03T02:08:13.681Z,70.61
2023-03-03T02:10:41.471Z,70.62
2023-03-03T02:13:09.134Z,70.06
2023-03-03T02:15:37.592Z,70.36
2023-03-03T02:18:05.442Z,69.97
2023-03-03T02:20:33.051Z,70.06
2023-03-03T02:23:00.878Z,70.52
2023-03-03T02:25:28.450Z,70.27
2023-03-03T02:27:57.677Z,70.24
2023-03-03T02:30:25.321Z,70.06
2023-03-03T02:32:52.937Z,70.46
2023-03-03T02:35:20.634Z,70.02
2023-03-03T02:37:48.267Z,70.87
2023-03-03T02:40:16.534Z,70.45
2023-03-03T02:42:44.175Z,71.03
2023-03-03T02:45:11.794Z,70.94
2023-03-03T02:47:39.766Z,70.60
2023-03-03T02:50:07.417Z,70.31
2023-03-03T02:52:35.365Z,70.74
2023-03-03T02:55:03.032Z,70.22
2023-03-03T02:57:30.677Z,70.90
2023-03-03T02:59:58.459Z,71.05
2023-03-03T03:02:27.461Z,70.50
2023-03-03T03:04:55.088Z,70.53
2023-03-03T03:07:22.729Z,70.70
2023-03-03T03:09:50.339Z,70.29
2023-03-03T03:12:19.453Z,70.37
2023-03-03T03:14:47.043Z,70.51
2023-03-03T03:17:14.693Z,70.90
2023-03-03T03:19:42.352Z,70.20
2023-03-03T03:22:09.924Z,71.00
2023-03-03T03:24:38.771Z,70.52
2023-03-03T03:27:06.388Z,70.88
2023-03-03T03:29:33.966Z,71.16
2023-03-03T03:32:01.566Z,71.33
2023-03-03T03:34:29.183Z,70.47
2023-03-03T03:36:56.764Z,71.13
2023-03-03T03:39:24.324Z,70.72
2023-03-03T03:41:52.320Z,70.78
2023-03-03T03:44:19.946Z,71.14
2023-03-03T03:46:47.848Z,70.83
2023-03-03T03:49:15.656Z,70.72
2023-03-03T03:51:43.244Z,71.08
2023-03-03T03:54:11.307Z,70.74
2023-03-03T03:56:38.934Z,71.01
2023-03-03T03:59:06.542Z,71.09
2023-03-03T04:01:34.134Z,70.89
2023-03-03T04:04:01.736Z,71.47
2023-03-03T04:06:29.697Z,71.57
2023-03-03T04:08:57.593Z,71.45
2023-03-03T04:11:25.438Z,71.71
2023-03-03T04:13:52.997Z,71.54
2023-03-03T04:16:20.568Z,71.85
2023-03-03T04:18:48.522Z,71.81
2023-03-03T04:21:16.102Z,71.87
2023-03-03T04:23:43.696Z,71.63
2023-03-03T04:26:11.547Z,72.39
2023-03-03T04:28:39.142Z,72.50
2023-03-03T04:31:07.149Z,72.27
2023-03-03T04:33:34.826Z,72.19
2023-03-03T04:36:02.402Z,71.95
2023-03-03T04:38:30.198Z,72.43
2023-03-03T04:40:57.856Z,72.44
2023-03-03T04:43:25.797Z,72.26
2023-03-03T04:45:53.427Z,72.13
2023-03-03T04:48:21.052Z,71.68
2023-03-03T04:50:48.846Z,72.05
2023-03-03T04:53:16.710Z,72.39
2023-03-03T04:55:44.655Z,71.87
2023-03-03T04:58:12.257Z,72.21
2023-03-03T05:00:39.859Z,72.25
2023-03-03T05:03:07.483Z,72.31
2023-03-03T05:05:35.083Z,72.30
2023-03-03T05:08:03.052Z,71.97
2023-03-03T05:10:30.673Z,71.90
2023-03-03T05:12:58.367Z,72.15
2023-03-03T05:15:26.880Z,72.52
2023-03-03T05:17:56.641Z,72.01
2023-03-03T05:20:24.643Z,72.24
2023-03-03T05:22:52.242Z,72.20
2023-03-03T05:25:19.895Z,71.61
2023-03-03T05:27:47.698Z,72.23
2023-03-03T05:30:15.259Z,72.37
2023-03-03T05:32:43.268Z,71.84
2023-03-03T05:35:10.848Z,72.27
2023-03-03T05:37:40.238Z,71.80
2023-03-03T05:40:07.906Z,72.26
2023-03-03T05:42:35.665Z,72.47
2023-03-03T05:45:03.685Z,72.27
2023-03-03T05:47:31.332Z,72.15
2023-03-03T05:49:58.962Z,72.06
2023-03-03T05:52:26.589Z,72.36
2023-03-03T05:54:54.271Z,72.48
2023-03-03T05:57:22.064Z,72.51
2023-03-03T05:59:49.707Z,72.11
2023-03-03T06:02:17.365Z,72.56
2023-03-03T06:04:45.017Z,72.14
2023-03-03T06:07:12.688Z,72.42
2023-03-03T06:09:40.745Z,72.32
2023-03-03T06:12:08.428Z,71.99
2023-03-03T06:14:36.122Z,72.45
2023-03-03T06:17:04.056Z,72.08
2023-03-03T06:19:31.651Z,72.50
2023-03-03T06:22:00.851Z,72.63
2023-03-03T06:24:30.592Z,72.79
2023-03-03T06:26:58.257Z,72.48
2023-03-03T06:29:25.949Z,73.04
2023-03-03T06:31:53.814Z,72.21
2023-03-03T06:34:21.574Z,72.22
2023-03-03T06:36:49.232Z,72.04
2023-03-03T06:39:17.030Z,72.02
2023-03-03T06:41:44.672Z,71.81
2023-03-03T06:44:13.164Z,71.86
2023-03-03T06:46:41.234Z,72.46
2023-03-03T06:49:08.892Z,72.44
2023-03-03T06:51:36.498Z,72.49
2023-03-03T06:54:04.466Z,72.17
2023-03-03T06:56:32.109Z,72.00
2023-03-03T06:59:00.096Z,71.76
2023-03-03T07:01:28.055Z,72.00
2023-03-03T07:03:55.769Z,72.18
2023-03-03T07:06:25.007Z,72.17
2023-03-03T07:08:53.042Z,72.21
2023-03-03T07:11:21.275Z,71.80
2023-03-03T07:13:48.949Z,72.24
2023-03-03T07:16:16.837Z,72.14
2023-03-03T07:18:45.762Z,72.38
2023-03-03T07:21:13.393Z,72.05
2023-03-03T07:23:43.002Z,72.21
2023-03-03T07:26:10.658Z,71.71
2023-03-03T07:28:38.346Z,71.93
2023-03-03T07:31:06.375Z,71.43
2023-03-03T07:33:34.117Z,71.94
2023-03-03T07:36:02.258Z,71.73
2023-03-03T07:38:30.062Z,71.98
2023-03-03T07:40:58.038Z,72.04
2023-03-03T07:43:27.807Z,72.22
2023-03-03T07:45:55.726Z,71.98
2023-03-03T07:48:24.264Z,72.12
2023-03-03T07:50:51.998Z,71.72
2023-03-03T07:53:19.909Z,71.95
2023-03-03T07:55:48.376Z,71.74
2023-03-03T07:58:16.675Z,71.43
2023-03-03T08:00:44.946Z,71.24
2023-03-03T08:03:12.628Z,71.12
2023-03-03T08:05:40.422Z,71.09
2023-03-03T08:08:08.508Z,71.62
2023-03-03T08:10:36.463Z,71.69
2023-03-03T08:13:04.641Z,71.09
2023-03-03T08:15:32.571Z,71.78
2023-03-03T08:18:00.388Z,71.49
2023-03-03T08:20:28.686Z,71.78
2023-03-03T08:22:56.444Z,71.92
2023-03-03T08:25:24.187Z,71.26
2023-03-03T08:27:51.830Z,71.08
2023-03-03T08:30:19.514Z,71.51
2023-03-03T08:32:48.212Z,71.21
2023-03-03T08:35:16.062Z,71.87
2023-03-03T08:37:44.183Z,71.36
2023-03-03T08:40:11.995Z,71.21
2023-03-03T08:42:39.742Z,70.98
2023-03-03T08:45:08.284Z,71.32
2023-03-03T08:47:36.018Z,71.57
2023-03-03T08:50:04.497Z,71.46
2023-03-03T08:52:32.455Z,71.18
2023-03-03T08:55:00.861Z,71.25
2023-03-03T08:57:28.880Z,71.68
2023-03-03T08:59:57.085Z,71.16
2023-03-03T09:02:25.173Z,71.83
2023-03-03T09:04:53.033Z,71.16
2023-03-03T09:07:21.034Z,71.52
2023-03-03T09:09:49.273Z,71.70
2023-03-03T09:12:17.167Z,71.00
2023-03-03T09:14:45.585Z,71.25
2023-03-03T09:17:13.612Z,71.27
2023-03-03T09:19:41.401Z,71.02
2023-03-03T09:22:09.878Z,70.58
2023-03-03T09:24:37.647Z,70.71
2023-03-03T09:27:06.008Z,70.47
2023-03-03T09:29:33.850Z,70.76
2023-03-03T09:32:02.552Z,70.66
2023-03-03T09:34:30.931Z,70.96
2023-03-03T09:37:00.411Z,70.37
2023-03-03T09:39:28.763Z,70.37
2023-03-03T09:41:56.510Z,70.43
2023-03-03T09:44:24.320Z,70.30
2023-03-03T09:46:52.167Z,70.17
2023-03-03T09:49:20.023Z,70.36
2023-03-03T09:51:48.329Z,69.51
2023-03-03T09:54:16.328Z,70.32
2023-03-03T09:56:44.805Z,69.61
2023-03-03T09:59:13.334Z,70.20
2023-03-03T10:01:41.113Z,69.71
2023-03-03T10:04:08.962Z,69.74
2023-03-03T10:06:36.847Z,70.06
2023-03-03T10:09:04.683Z,69.87
2023-03-03T10:11:32.994Z,69.67
2023-03-03T10:14:00.973Z,69.74
2023-03-03T10:16:29.229Z,69.54
2023-03-03T10:18:57.000Z,69.88
2023-03-03T10:21:24.935Z,69.54
2023-03-03T10:23:56.901Z,69.21
2023-03-03T10:26:42.009Z,69.50
2023-03-03T10:29:12.542Z,69.72
2023-03-03T10:31:40.469Z,69.53
2023-03-03T10:34:08.762Z,69.11
2023-03-03T10:36:36.480Z,69.46
2023-03-03T10:39:04.448Z,69.65
2023-03-03T10:41:32.597Z,69.57
2023-03-03T10:44:01.007Z,69.21
2023-03-03T10:46:29.161Z,69.16
2023-03-03T10:48:57.757Z,68.90
2023-03-03T10:51:25.622Z,69.43
2023-03-03T10:53:54.317Z,69.44
2023-03-03T10:56:22.130Z,69.11
2023-03-03T10:58:50.139Z,69.43
2023-03-03T11:01:18.132Z,68.73
2023-03-03T11:03:45.953Z,68.87
2023-03-03T11:06:14.659Z,69.01
2023-03-03T11:08:42.660Z,68.79
2023-03-03T11:11:10.804Z,68.82
2023-03-03T11:13:38.775Z,69.05
2023-03-03T11:16:07.138Z,69.27
2023-03-03T11:18:35.511Z,68.97
2023-03-03T11:21:03.383Z,68.62
2023-03-03T11:23:31.401Z,68.40
2023-03-03T11:25:59.257Z,67.94
2023-03-03T11:28:27.092Z,68.07
2023-03-03T11:30:55.958Z,68.71
2023-03-03T11:33:23.948Z,67.94
2023-03-03T11:35:52.059Z,68.68
2023-03-03T11:38:20.153Z,68.29
2023-03-03T11:40:48.137Z,68.26
2023-03-03T11:43:29.893Z,67.87
2023-03-03T11:46:03.508Z,67.45
2023-03-03T11:48:31.637Z,67.68
2023-03-03T11:50:59.483Z,67.30
2023-03-03T11:53:27.812Z,67.19
2023-03-03T11:55:55.668Z,67.26
2023-03-03T11:58:23.565Z,67.03
2023-03-03T12:00:51.427Z,66.93
2023-03-03T12:03:19.223Z,66.86
2023-03-03T12:05:47.302Z,67.10
2023-03-03T12:08:15.554Z,67.01
2023-03-03T12:10:44.682Z,66.58
2023-03-03T12:13:12.726Z,66.95
2023-03-03T12:15:40.731Z,66.58
2023-03-03T12:18:08.877Z,66.67
2023-03-03T12:20:36.673Z,66.36
2023-03-03T12:23:07.282Z,66.30
2023-03-03T12:25:35.370Z,66.26
2023-03-03T12:28:03.443Z,66.21
2023-03-03T12:30:32.075Z,66.63
2023-03-03T12:33:00.556Z,65.97
2023-03-03T12:35:28.334Z,66.65
2023-03-03T12:37:56.337Z,66.23
2023-03-03T12:40:24.120Z,66.30
2023-03-03T12:42:52.311Z,66.78
2023-03-03T12:45:20.478Z,66.76
2023-03-03T12:47:48.506Z,66.86
2023-03-03T12:50:16.370Z,66.12
2023-03-03T12:52:44.265Z,66.24
2023-03-03T12:55:12.939Z,66.90
2023-03-03T12:57:40.702Z,66.51
2023-03-03T13:00:08.771Z,66.60
2023-03-03T13:02:36.809Z,66.34
2023-03-03T13:05:04.746Z,66.55
2023-03-03T13:07:33.611Z,65.94
2023-03-03T13:10:01.520Z,65.97
2023-03-03T13:12:29.891Z,66.11
2023-03-03T13:14:57.734Z,65.73
2023-03-03T13:17:25.960Z,65.96
2023-03-03T13:19:54.398Z,66.53
2023-03-03T13:22:22.467Z,65.75
2023-03-03T13:24:50.477Z,66.31
2023-03-03T13:27:18.333Z,66.25
2023-03-03T13:29:46.479Z,65.80
2023-03-03T13:32:14.708Z,66.40
2023-03-03T13:34:42.536Z,66.24
2023-03-03T13:37:10.713Z,66.00
2023-03-03T13:39:38.803Z,65.83
2023-03-03T13:42:06.648Z,65.83
2023-03-03T13:44:34.586Z,65.91
2023-03-03T13:47:02.322Z,65.26
2023-03-03T13:49:30.297Z,65.22
2023-03-03T13:51:58.265Z,65.27
2023-03-03T13:54:26.183Z,64.86
2023-03-03T13:56:54.436Z,65.14
2023-03-03T13:59:22.541Z,65.14
2023-03-03T14:01:50.646Z,65.19
2023-03-03T14:04:18.617Z,65.22
2023-03-03T14:06:46.703Z,65.00
2023-03-03T14:09:15.890Z,64.91
2023-03-03T14:11:43.649Z,64.84
2023-03-03T14:14:12.183Z,64.87
2023-03-03T14:16:40.086Z,64.50
2023-03-03T14:19:08.101Z,65.25
2023-03-03T14:21:37.019Z,65.00
2023-03-03T14:24:05.196Z,64.80
2023-03-03T14:26:33.384Z,65.27
2023-03-03T14:29:01.357Z,65.12
2023-03-03T14:31:29.173Z,64.94
2023-03-03T14:33:57.371Z,64.41
2023-03-03T14:36:25.377Z,64.56
2023-03-03T14:38:53.437Z,64.57
2023-03-03T14:41:21.347Z,64.81
2023-03-03T14:43:49.309Z,64.56
2023-03-03T14:46:18.107Z,64.93
2023-03-03T14:48:46.005Z,65.05
2023-03-03T14:51:14.466Z,65.00
2023-03-03T14:53:42.362Z,64.82
2023-03-03T14:56:10.254Z,65.59
2023-03-03T14:58:38.695Z,65.11
2023-03-03T15:01:06.552Z,64.84
2023-03-03T15:03:34.956Z,65.09
2023-03-03T15:06:03.008Z,64.91
2023-03-03T15:08:31.187Z,64.94
2023-03-03T15:11:00.545Z,64.58
2023-03-03T15:13:29.671Z,63.96
2023-03-03T15:15:57.673Z,64.16
2023-03-03T15:18:25.630Z,63.95
2023-03-03T15:20:53.927Z,63.91
2023-03-03T15:23:22.489Z,64.40
2023-03-03T15:25:54.595Z,64.24
2023-03-03T15:28:24.450Z,63.95
2023-03-03T15:30:52.298Z,64.13
2023-03-03T15:33:21.023Z,63.74
2023-03-03T15:35:49.700Z,64.04
2023-03-03T15:38:17.659Z,64.12
2023-03-03T15:40:45.652Z,63.70
2023-03-03T15:43:13.955Z,64.08
2023-03-03T15:45:41.795Z,62.41
2023-03-03T15:48:10.042Z,61.23
2023-03-03T15:50:38.349Z,60.06
2023-03-03T15:53:06.802Z,59.11
2023-03-03T15:55:35.448Z,59.25
2023-03-03T15:58:03.503Z,60.05
2023-03-03T16:00:31.734Z,61.23
2023-03-03T16:02:59.762Z,61.33
2023-03-03T16:05:28.369Z,62.41
2023-03-03T16:07:56.269Z,62.70
2023-03-03T16:10:24.330Z,63.23
2023-03-03T16:12:53.034Z,63.69
2023-03-03T16:15:20.918Z,64.17
2023-03-03T16:17:49.189Z,64.55
2023-03-03T16:20:17.174Z,65.25
2023-03-03T16:22:44.951Z,66.10
2023-03-03T16:25:13.604Z,66.35
2023-03-03T16:27:41.683Z,66.62
2023-03-03T16:30:09.901Z,66.61
2023-03-03T16:32:37.823Z,67.27
2023-03-03T16:35:06.331Z,67.45
2023-03-03T16:37:35.325Z,67.18
2023-03-03T16:40:03.759Z,67.46
2023-03-03T16:42:32.017Z,68.09
2023-03-03T16:44:59.945Z,68.00
2023-03-03T16:47:27.863Z,68.57
2023-03-03T16:49:56.540Z,69.10
2023-03-03T16:52:24.435Z,69.01
2023-03-03T16:54:54.648Z,69.08
2023-03-03T16:57:22.665Z,69.24
2023-03-03T16:59:50.606Z,69.65
2023-03-03T17:02:19.348Z,69.30
2023-03-03T17:04:47.256Z,69.83
2023-03-03T17:07:15.328Z,69.92
2023-03-03T17:09:43.272Z,70.16
2023-03-03T17:12:11.297Z,69.71
2023-03-03T17:14:39.928Z,69.46
2023-03-03T17:17:07.815Z,69.87
2023-03-03T17:19:36.818Z,70.63
2023-03-03T17:22:04.624Z,70.46
2023-03-03T17:24:32.451Z,70.95
2023-03-03T17:27:00.852Z,70.66
2023-03-03T17:29:28.936Z,71.03
2023-03-03T17:31:57.299Z,70.42
2023-03-03T17:34:25.175Z,71.10
2023-03-03T17:36:52.966Z,71.04
2023-03-03T17:39:21.056Z,71.23
2023-03-03T17:41:49.199Z,70.82
2023-03-03T17:44:17.309Z,71.33
2023-03-03T17:46:45.317Z,70.91
2023-03-03T17:49:13.364Z,71.03
2023-03-03T17:51:41.222Z,71.47
2023-03-03T17:54:09.058Z,71.40
2023-03-03T17:56:37.695Z,71.30
2023-03-03T17:59:05.607Z,71.90
2023-03-03T18:01:33.438Z,71.98
2023-03-03T18:04:02.213Z,72.07
2023-03-03T18:06:30.059Z,72.42
2023-03-03T18:09:12.910Z,72.05
2023-03-03T18:11:41.581Z,72.37
2023-03-03T18:14:09.905Z,71.94
2023-03-03T18:16:37.816Z,71.97
2023-03-03T18:19:06.273Z,72.08
2023-03-03T18:21:35.354Z,72.42
2023-03-03T18:24:03.435Z,72.13
2023-03-03T18:26:43.596Z,72.70
2023-03-03T18:29:17.539Z,72.41
2023-03-03T18:31:45.747Z,72.96
2023-03-03T18:34:13.672Z,73.20
2023-03-03T18:36:42.260Z,72.79
2023-03-03T18:39:10.371Z,73.47
2023-03-03T18:41:39.922Z,72.81
2023-03-03T18:44:07.858Z,73.23
2023-03-03T18:46:35.989Z,72.93
2023-03-03T18:49:04.608Z,73.10
2023-03-03T18:51:32.636Z,73.08
2023-03-03T18:54:00.943Z,73.83
2023-03-03T18:56:28.970Z,73.63
2023-03-03T18:58:56.767Z,73.02
2023-03-03T19:01:25.502Z,73.82
2023-03-03T19:03:53.840Z,73.75
2023-03-03T19:06:21.889Z,73.66
2023-03-03T19:08:54.325Z,73.71
2023-03-03T19:11:22.182Z,74.22
2023-03-03T19:13:50.605Z,73.96
2023-03-03T19:16:18.767Z,73.89
2023-03-03T19:18:46.821Z,73.40
2023-03-03T19:21:14.656Z,73.32
2023-03-03T19:23:42.879Z,73.56
2023-03-03T19:26:11.545Z,72.77
2023-03-03T19:28:39.592Z,72.73
2023-03-03T19:31:07.857Z,72.69
2023-03-03T19:33:35.926Z,72.19
2023-03-03T19:36:03.880Z,72.53
2023-03-03T19:38:33.066Z,72.13
2023-03-03T19:41:01.203Z,72.10
2023-03-03T19:43:29.316Z,71.82
2023-03-03T19:45:57.349Z,72.20
2023-03-03T19:48:25.751Z,71.21
2023-03-03T19:50:54.219Z,71.66
2023-03-03T19:53:22.161Z,71.09
2023-03-03T19:55:50.186Z,71.00
2023-03-03T19:58:18.740Z,70.97
2023-03-03T20:00:46.716Z,71.40
2023-03-03T20:03:14.981Z,70.66
2023-03-03T20:05:42.960Z,70.80
2023-03-03T20:08:11.188Z,71.63
2023-03-03T20:10:39.416Z,70.92
2023-03-03T20:13:07.455Z,70.47
2023-03-03T20:15:35.420Z,70.81
2023-03-03T20:18:03.405Z,71.26
2023-03-03T20:20:31.262Z,71.03
2023-03-03T20:22:59.335Z,71.01
2023-03-03T20:25:27.155Z,71.47
2023-03-03T20:27:55.361Z,70.89
2023-03-03T20:30:23.473Z,71.08
2023-03-03T20:32:53.315Z,71.09
2023-03-03T20:35:23.628Z,70.42
2023-03-03T20:37:51.675Z,70.23
2023-03-03T20:40:19.978Z,70.35
2023-03-03T20:42:47.830Z,70.66
2023-03-03T20:45:16.350Z,70.61
2023-03-03T20:47:44.255Z,70.93
2023-03-03T20:50:15.666Z,70.89
2023-03-03T20:52:44.066Z,70.29
2023-03-03T20:55:12.027Z,70.50
2023-03-03T20:57:39.948Z,70.23
2023-03-03T21:00:07.953Z,71.08
2023-03-03T21:02:35.805Z,71.05
2023-03-03T21:05:05.764Z,70.57
2023-03-03T21:07:33.861Z,71.15
2023-03-03T21:10:02.335Z,70.86
2023-03-03T21:12:30.349Z,70.64
2023-03-03T21:14:58.848Z,71.05
2023-03-03T21:17:26.844Z,70.36
2023-03-03T21:19:54.633Z,70.92
2023-03-03T21:22:22.989Z,70.43
2023-03-03T21:24:50.825Z,70.39
2023-03-03T21:27:18.785Z,70.94
2023-03-03T21:29:47.326Z,70.71
2023-03-03T21:32:15.321Z,70.79
2023-03-03T21:34:44.024Z,71.08
2023-03-03T21:37:12.726Z,71.06
2023-03-03T21:39:40.510Z,71.05
2023-03-03T21:42:08.464Z,70.43
2023-03-03T21:44:36.517Z,70.97
2023-03-03T21:47:04.714Z,70.99
2023-03-03T21:49:32.589Z,70.92
2023-03-03T21:52:00.438Z,70.78
2023-03-03T21:54:28.232Z,70.43
2023-03-03T21:56:56.008Z,70.33
2023-03-03T21:59:24.491Z,70.50
2023-03-03T22:01:52.542Z,70.71
2023-03-03T22:04:20.406Z,70.25
2023-03-03T22:06:48.687Z,70.39
2023-03-03T22:09:16.572Z,70.84
2023-03-03T22:11:44.717Z,70.16
2023-03-03T22:14:12.756Z,70.77
2023-03-03T22:16:40.596Z,70.19
2023-03-03T22:19:10.265Z,70.30
2023-03-03T22:21:38.258Z,70.86
2023-03-03T22:24:06.621Z,69.88
2023-03-03T22:26:34.343Z,70.59
2023-03-03T22:29:02.272Z,70.52
2023-03-03T22:31:30.545Z,70.02
2023-03-03T22:33:58.405Z,70.64
2023-03-03T22:36:26.528Z,70.70
2023-03-03T22:38:54.414Z,70.35
2023-03-03T22:41:22.741Z,70.51
2023-03-03T22:43:51.336Z,70.35
2023-03-03T22:46:19.260Z,69.94
2023-03-03T22:48:46.988Z,70.22
2023-03-03T22:51:14.901Z,69.67
2023-03-03T22:53:42.604Z,70.16
2023-03-03T22:56:10.747Z,70.65
2023-03-03T22:58:38.632Z,70.50
2023-03-03T23:01:06.702Z,70.56
2023-03-03T23:03:34.879Z,70.14
2023-03-03T23:06:02.715Z,70.47
2023-03-03T23:08:30.823Z,70.36
2023-03-03T23:10:58.707Z,70.54
2023-03-03T23:13:27.637Z,70.82
2023-03-03T23:15:58.591Z,70.18
2023-03-03T23:18:26.363Z,70.40
2023-03-03T23:20:54.502Z,69.64
2023-03-03T23:23:22.234Z,70.11
2023-03-03T23:25:51.855Z,70.01
2023-03-03T23:28:19.612Z,70.24
2023-03-03T23:30:47.381Z,70.10
2023-03-03T23:33:15.468Z,70.43
2023-03-03T23:35:45.416Z,70.14
2023-03-03T23:38:17.817Z,69.89
2023-03-03T23:40:46.934Z,70.21
2023-03-03T23:43:14.619Z,69.66
2023-03-03T23:45:42.336Z,69.66
2023-03-03T23:48:10.560Z,70.02
2023-03-03T23:50:39.461Z,69.81
2023-03-03T23:53:07.134Z,70.36
2023-03-03T23:55:34.929Z,70.13
2023-03-03T23:58:03.021Z,69.99
